sensor_id;sensor_type;location;lat;lon;timestamp;P1;durP1;ratioP1;P2;durP2;ratioP2
73023;SDS011;61199;47.526;8.538;2022-08-21T00:00:06;2.83;;;2.10;;
73023;SDS011;61199;47.526;8.538;2022-08-21T00:02:35;3.40;;;2.23;;
73023;SDS011;61199;47.526;8.538;2022-08-21T00:05:02;6.63;;;2.67;;
73023;SDS011;61199;47.526;8.538;2022-08-21T00:07:29;2.70;;;2.07;;
73023;SDS011;61199;47.526;8.538;2022-08-21T00:09:56;2.53;;;2.07;;
73023;SDS011;61199;47.526;8.538;2022-08-21T00:12:22;3.33;;;2.73;;
73023;SDS011;61199;47.526;8.538;2022-08-21T00:14:49;3.30;;;2.63;;
73023;SDS011;61199;47.526;8.538;2022-08-21T00:17:22;3.67;;;2.80;;
73023;SDS011;61199;47.526;8.538;2022-08-21T00:19:48;3.93;;;3.00;;
73023;SDS011;61199;47.526;8.538;2022-08-21T00:22:14;4.83;;;3.50;;
73023;SDS011;61199;47.526;8.538;2022-08-21T00:24:41;5.47;;;3.83;;
73023;SDS011;61199;47.526;8.538;2022-08-21T00:27:07;7.57;;;3.90;;
73023;SDS011;61199;47.526;8.538;2022-08-21T00:29:34;5.23;;;4.30;;
73023;SDS011;61199;47.526;8.538;2022-08-21T00:32:00;4.77;;;3.97;;
73023;SDS011;61199;47.526;8.538;2022-08-21T00:34:27;6.93;;;4.60;;
73023;SDS011;61199;47.526;8.538;2022-08-21T00:36:53;8.67;;;4.27;;
73023;SDS011;61199;47.526;8.538;2022-08-21T00:39:20;7.33;;;4.47;;
73023;SDS011;61199;47.526;8.538;2022-08-21T00:41:46;4.50;;;3.77;;
73023;SDS011;61199;47.526;8.538;2022-08-21T00:44:13;8.30;;;4.70;;
73023;SDS011;61199;47.526;8.538;2022-08-21T00:46:40;6.30;;;5.20;;
73023;SDS011;61199;47.526;8.538;2022-08-21T00:49:08;9.07;;;7.13;;
73023;SDS011;61199;47.526;8.538;2022-08-21T00:51:43;13.30;;;7.33;;
73023;SDS011;61199;47.526;8.538;2022-08-21T00:54:15;8.20;;;5.60;;
73023;SDS011;61199;47.526;8.538;2022-08-21T00:56:48;7.40;;;4.77;;
73023;SDS011;61199;47.526;8.538;2022-08-21T00:59:20;9.33;;;5.10;;
73023;SDS011;61199;47.526;8.538;2022-08-21T01:01:48;5.17;;;3.90;;
73023;SDS011;61199;47.526;8.538;2022-08-21T01:04:15;8.07;;;4.80;;
73023;SDS011;61199;47.526;8.538;2022-08-21T01:06:42;5.87;;;3.97;;
73023;SDS011;61199;47.526;8.538;2022-08-21T01:09:09;4.30;;;3.57;;
73023;SDS011;61199;47.526;8.538;2022-08-21T01:11:36;5.70;;;4.47;;
73023;SDS011;61199;47.526;8.538;2022-08-21T01:14:03;6.07;;;5.00;;
73023;SDS011;61199;47.526;8.538;2022-08-21T01:16:29;6.03;;;5.17;;
73023;SDS011;61199;47.526;8.538;2022-08-21T01:18:56;7.50;;;5.67;;
73023;SDS011;61199;47.526;8.538;2022-08-21T01:21:24;22.27;;;6.17;;
73023;SDS011;61199;47.526;8.538;2022-08-21T01:23:54;8.00;;;6.00;;
73023;SDS011;61199;47.526;8.538;2022-08-21T01:26:27;10.13;;;6.03;;
73023;SDS011;61199;47.526;8.538;2022-08-21T01:29:01;12.10;;;7.63;;
73023;SDS011;61199;47.526;8.538;2022-08-21T01:31:33;11.83;;;6.77;;
73023;SDS011;61199;47.526;8.538;2022-08-21T01:33:59;12.33;;;7.80;;
73023;SDS011;61199;47.526;8.538;2022-08-21T01:36:27;11.60;;;7.67;;
73023;SDS011;61199;47.526;8.538;2022-08-21T01:38:54;15.03;;;9.27;;
73023;SDS011;61199;47.526;8.538;2022-08-21T01:41:21;17.37;;;10.30;;
73023;SDS011;61199;47.526;8.538;2022-08-21T01:43:48;17.10;;;10.60;;
73023;SDS011;61199;47.526;8.538;2022-08-21T01:46:15;20.67;;;11.33;;
73023;SDS011;61199;47.526;8.538;2022-08-21T01:48:42;24.00;;;12.80;;
73023;SDS011;61199;47.526;8.538;2022-08-21T01:51:09;21.57;;;12.30;;
73023;SDS011;61199;47.526;8.538;2022-08-21T01:53:36;19.33;;;10.70;;
73023;SDS011;61199;47.526;8.538;2022-08-21T01:56:03;14.40;;;8.97;;
73023;SDS011;61199;47.526;8.538;2022-08-21T01:58:38;15.23;;;8.90;;
73023;SDS011;61199;47.526;8.538;2022-08-21T02:01:06;18.00;;;9.50;;
73023;SDS011;61199;47.526;8.538;2022-08-21T02:03:33;17.93;;;9.60;;
73023;SDS011;61199;47.526;8.538;2022-08-21T02:06:02;10.97;;;7.40;;
73023;SDS011;61199;47.526;8.538;2022-08-21T02:08:29;12.10;;;7.57;;
73023;SDS011;61199;47.526;8.538;2022-08-21T02:10:55;10.87;;;7.57;;
73023;SDS011;61199;47.526;8.538;2022-08-21T02:13:22;19.47;;;7.67;;
73023;SDS011;61199;47.526;8.538;2022-08-21T02:15:48;14.07;;;7.43;;
73023;SDS011;61199;47.526;8.538;2022-08-21T02:18:15;13.97;;;8.10;;
73023;SDS011;61199;47.526;8.538;2022-08-21T02:20:43;17.33;;;7.10;;
73023;SDS011;61199;47.526;8.538;2022-08-21T02:23:12;13.90;;;7.80;;
73023;SDS011;61199;47.526;8.538;2022-08-21T02:25:40;12.27;;;7.40;;
73023;SDS011;61199;47.526;8.538;2022-08-21T02:28:08;12.27;;;7.80;;
73023;SDS011;61199;47.526;8.538;2022-08-21T02:30:38;14.00;;;8.37;;
73023;SDS011;61199;47.526;8.538;2022-08-21T02:33:07;13.40;;;8.07;;
73023;SDS011;61199;47.526;8.538;2022-08-21T02:35:35;14.90;;;7.80;;
73023;SDS011;61199;47.526;8.538;2022-08-21T02:38:05;18.63;;;8.10;;
73023;SDS011;61199;47.526;8.538;2022-08-21T02:40:38;11.27;;;7.83;;
73023;SDS011;61199;47.526;8.538;2022-08-21T02:43:13;9.67;;;7.87;;
73023;SDS011;61199;47.526;8.538;2022-08-21T02:45:41;8.60;;;6.87;;
73023;SDS011;61199;47.526;8.538;2022-08-21T02:48:08;12.60;;;6.97;;
73023;SDS011;61199;47.526;8.538;2022-08-21T02:50:38;10.00;;;6.97;;
73023;SDS011;61199;47.526;8.538;2022-08-21T02:53:16;11.57;;;6.70;;
73023;SDS011;61199;47.526;8.538;2022-08-21T02:55:43;10.33;;;5.80;;
73023;SDS011;61199;47.526;8.538;2022-08-21T02:58:13;9.00;;;6.90;;
73023;SDS011;61199;47.526;8.538;2022-08-21T03:00:42;8.07;;;6.47;;
73023;SDS011;61199;47.526;8.538;2022-08-21T03:03:10;7.27;;;5.60;;
73023;SDS011;61199;47.526;8.538;2022-08-21T03:05:36;9.47;;;6.20;;
73023;SDS011;61199;47.526;8.538;2022-08-21T03:08:04;9.37;;;6.53;;
73023;SDS011;61199;47.526;8.538;2022-08-21T03:10:36;8.87;;;6.03;;
73023;SDS011;61199;47.526;8.538;2022-08-21T03:13:05;8.27;;;6.67;;
73023;SDS011;61199;47.526;8.538;2022-08-21T03:15:32;10.23;;;6.70;;
73023;SDS011;61199;47.526;8.538;2022-08-21T03:17:59;8.77;;;5.73;;
73023;SDS011;61199;47.526;8.538;2022-08-21T03:20:26;8.33;;;5.67;;
73023;SDS011;61199;47.526;8.538;2022-08-21T03:22:54;7.70;;;5.30;;
73023;SDS011;61199;47.526;8.538;2022-08-21T03:25:22;12.63;;;5.70;;
73023;SDS011;61199;47.526;8.538;2022-08-21T03:28:06;7.60;;;5.10;;
73023;SDS011;61199;47.526;8.538;2022-08-21T03:30:39;12.10;;;5.47;;
73023;SDS011;61199;47.526;8.538;2022-08-21T03:33:07;10.43;;;5.63;;
73023;SDS011;61199;47.526;8.538;2022-08-21T03:35:33;14.70;;;7.30;;
73023;SDS011;61199;47.526;8.538;2022-08-21T03:37:59;18.40;;;7.40;;
73023;SDS011;61199;47.526;8.538;2022-08-21T03:40:26;15.77;;;7.20;;
73023;SDS011;61199;47.526;8.538;2022-08-21T03:42:52;10.57;;;7.00;;
73023;SDS011;61199;47.526;8.538;2022-08-21T03:45:19;13.40;;;7.47;;
73023;SDS011;61199;47.526;8.538;2022-08-21T03:50:30;17.20;;;7.10;;
73023;SDS011;61199;47.526;8.538;2022-08-21T03:53:00;11.83;;;7.90;;
73023;SDS011;61199;47.526;8.538;2022-08-21T03:55:27;15.00;;;8.20;;
73023;SDS011;61199;47.526;8.538;2022-08-21T03:57:53;16.47;;;8.33;;
73023;SDS011;61199;47.526;8.538;2022-08-21T04:00:20;16.70;;;9.30;;
73023;SDS011;61199;47.526;8.538;2022-08-21T04:02:47;15.97;;;9.37;;
73023;SDS011;61199;47.526;8.538;2022-08-21T04:05:13;16.40;;;9.60;;
73023;SDS011;61199;47.526;8.538;2022-08-21T04:07:53;15.30;;;10.20;;
73023;SDS011;61199;47.526;8.538;2022-08-21T04:10:21;14.33;;;9.70;;
73023;SDS011;61199;47.526;8.538;2022-08-21T04:12:49;15.97;;;9.77;;
73023;SDS011;61199;47.526;8.538;2022-08-21T04:15:17;13.13;;;9.03;;
73023;SDS011;61199;47.526;8.538;2022-08-21T04:17:43;15.27;;;9.10;;
73023;SDS011;61199;47.526;8.538;2022-08-21T04:20:10;12.60;;;8.87;;
73023;SDS011;61199;47.526;8.538;2022-08-21T04:22:36;13.60;;;8.73;;
73023;SDS011;61199;47.526;8.538;2022-08-21T04:25:03;12.87;;;8.40;;
73023;SDS011;61199;47.526;8.538;2022-08-21T04:27:29;13.23;;;8.73;;
73023;SDS011;61199;47.526;8.538;2022-08-21T04:29:56;14.13;;;7.70;;
73023;SDS011;61199;47.526;8.538;2022-08-21T04:32:23;10.50;;;7.20;;
73023;SDS011;61199;47.526;8.538;2022-08-21T04:34:50;8.53;;;5.97;;
73023;SDS011;61199;47.526;8.538;2022-08-21T04:37:16;8.70;;;6.50;;
73023;SDS011;61199;47.526;8.538;2022-08-21T04:39:43;9.43;;;5.47;;
73023;SDS011;61199;47.526;8.538;2022-08-21T04:42:09;7.20;;;5.60;;
73023;SDS011;61199;47.526;8.538;2022-08-21T04:44:36;4.60;;;3.97;;
73023;SDS011;61199;47.526;8.538;2022-08-21T04:47:02;5.43;;;4.30;;
73023;SDS011;61199;47.526;8.538;2022-08-21T04:49:29;5.30;;;4.30;;
73023;SDS011;61199;47.526;8.538;2022-08-21T04:51:57;5.60;;;4.27;;
73023;SDS011;61199;47.526;8.538;2022-08-21T04:54:23;4.87;;;4.33;;
73023;SDS011;61199;47.526;8.538;2022-08-21T04:56:57;4.53;;;3.93;;
73023;SDS011;61199;47.526;8.538;2022-08-21T04:59:31;5.50;;;4.50;;
73023;SDS011;61199;47.526;8.538;2022-08-21T05:02:02;5.20;;;4.73;;
73023;SDS011;61199;47.526;8.538;2022-08-21T05:04:32;6.13;;;4.43;;
73023;SDS011;61199;47.526;8.538;2022-08-21T05:07:02;6.27;;;4.50;;
73023;SDS011;61199;47.526;8.538;2022-08-21T05:09:32;5.40;;;4.60;;
73023;SDS011;61199;47.526;8.538;2022-08-21T05:12:00;6.50;;;4.77;;
73023;SDS011;61199;47.526;8.538;2022-08-21T05:14:28;5.10;;;4.03;;
73023;SDS011;61199;47.526;8.538;2022-08-21T05:16:54;4.80;;;4.10;;
73023;SDS011;61199;47.526;8.538;2022-08-21T05:19:21;5.17;;;4.47;;
73023;SDS011;61199;47.526;8.538;2022-08-21T05:21:47;5.33;;;4.27;;
73023;SDS011;61199;47.526;8.538;2022-08-21T05:24:14;7.87;;;5.07;;
73023;SDS011;61199;47.526;8.538;2022-08-21T05:26:41;6.30;;;4.10;;
73023;SDS011;61199;47.526;8.538;2022-08-21T05:29:13;8.17;;;4.57;;
73023;SDS011;61199;47.526;8.538;2022-08-21T05:31:41;5.57;;;4.07;;
73023;SDS011;61199;47.526;8.538;2022-08-21T05:34:08;4.20;;;3.43;;
73023;SDS011;61199;47.526;8.538;2022-08-21T05:36:35;3.97;;;3.27;;
73023;SDS011;61199;47.526;8.538;2022-08-21T05:39:02;8.33;;;3.63;;
73023;SDS011;61199;47.526;8.538;2022-08-21T05:41:29;3.50;;;3.23;;
73023;SDS011;61199;47.526;8.538;2022-08-21T05:43:59;4.10;;;3.50;;
73023;SDS011;61199;47.526;8.538;2022-08-21T05:46:26;5.20;;;3.63;;
73023;SDS011;61199;47.526;8.538;2022-08-21T05:48:52;3.27;;;2.90;;
73023;SDS011;61199;47.526;8.538;2022-08-21T05:51:19;5.33;;;3.27;;
73023;SDS011;61199;47.526;8.538;2022-08-21T05:53:45;3.90;;;2.80;;
73023;SDS011;61199;47.526;8.538;2022-08-21T05:56:12;3.77;;;3.17;;
73023;SDS011;61199;47.526;8.538;2022-08-21T05:58:39;4.57;;;3.40;;
73023;SDS011;61199;47.526;8.538;2022-08-21T06:01:06;3.20;;;2.73;;
73023;SDS011;61199;47.526;8.538;2022-08-21T06:03:35;3.17;;;2.73;;
73023;SDS011;61199;47.526;8.538;2022-08-21T06:06:04;6.00;;;2.57;;
73023;SDS011;61199;47.526;8.538;2022-08-21T06:08:31;3.00;;;2.80;;
73023;SDS011;61199;47.526;8.538;2022-08-21T06:10:58;3.47;;;2.90;;
73023;SDS011;61199;47.526;8.538;2022-08-21T06:13:25;4.77;;;3.80;;
73023;SDS011;61199;47.526;8.538;2022-08-21T06:16:06;5.83;;;4.00;;
73023;SDS011;61199;47.526;8.538;2022-08-21T06:18:41;5.60;;;4.03;;
73023;SDS011;61199;47.526;8.538;2022-08-21T06:21:09;5.70;;;4.23;;
73023;SDS011;61199;47.526;8.538;2022-08-21T06:23:35;5.60;;;4.13;;
73023;SDS011;61199;47.526;8.538;2022-08-21T06:26:02;4.60;;;4.00;;
73023;SDS011;61199;47.526;8.538;2022-08-21T06:28:31;5.63;;;4.53;;
73023;SDS011;61199;47.526;8.538;2022-08-21T06:30:59;6.17;;;4.77;;
73023;SDS011;61199;47.526;8.538;2022-08-21T06:33:25;5.23;;;4.30;;
73023;SDS011;61199;47.526;8.538;2022-08-21T06:35:57;5.97;;;4.50;;
73023;SDS011;61199;47.526;8.538;2022-08-21T06:38:24;4.17;;;3.30;;
73023;SDS011;61199;47.526;8.538;2022-08-21T06:40:50;5.17;;;4.43;;
73023;SDS011;61199;47.526;8.538;2022-08-21T06:43:17;4.57;;;3.87;;
73023;SDS011;61199;47.526;8.538;2022-08-21T06:45:43;4.77;;;3.60;;
73023;SDS011;61199;47.526;8.538;2022-08-21T06:48:11;4.50;;;3.87;;
73023;SDS011;61199;47.526;8.538;2022-08-21T06:50:44;6.00;;;4.03;;
73023;SDS011;61199;47.526;8.538;2022-08-21T06:53:11;4.03;;;3.40;;
73023;SDS011;61199;47.526;8.538;2022-08-21T06:55:39;4.10;;;3.80;;
73023;SDS011;61199;47.526;8.538;2022-08-21T06:58:06;4.63;;;3.97;;
73023;SDS011;61199;47.526;8.538;2022-08-21T07:00:33;4.60;;;3.20;;
73023;SDS011;61199;47.526;8.538;2022-08-21T07:03:00;4.80;;;3.53;;
73023;SDS011;61199;47.526;8.538;2022-08-21T07:05:28;4.13;;;3.57;;
73023;SDS011;61199;47.526;8.538;2022-08-21T07:07:56;5.60;;;4.50;;
73023;SDS011;61199;47.526;8.538;2022-08-21T07:10:23;5.70;;;4.27;;
73023;SDS011;61199;47.526;8.538;2022-08-21T07:12:51;3.60;;;2.97;;
73023;SDS011;61199;47.526;8.538;2022-08-21T07:15:27;6.70;;;4.30;;
73023;SDS011;61199;47.526;8.538;2022-08-21T07:17:55;5.90;;;3.73;;
73023;SDS011;61199;47.526;8.538;2022-08-21T07:20:23;5.10;;;4.10;;
73023;SDS011;61199;47.526;8.538;2022-08-21T07:22:49;5.40;;;4.33;;
73023;SDS011;61199;47.526;8.538;2022-08-21T07:25:16;6.00;;;4.30;;
73023;SDS011;61199;47.526;8.538;2022-08-21T07:27:43;4.87;;;3.70;;
73023;SDS011;61199;47.526;8.538;2022-08-21T07:30:09;4.77;;;3.70;;
73023;SDS011;61199;47.526;8.538;2022-08-21T07:32:36;5.43;;;3.83;;
73023;SDS011;61199;47.526;8.538;2022-08-21T07:35:02;4.80;;;3.43;;
73023;SDS011;61199;47.526;8.538;2022-08-21T07:37:29;5.83;;;4.33;;
73023;SDS011;61199;47.526;8.538;2022-08-21T07:39:55;4.60;;;3.97;;
73023;SDS011;61199;47.526;8.538;2022-08-21T07:42:22;4.00;;;3.50;;
73023;SDS011;61199;47.526;8.538;2022-08-21T07:44:50;5.17;;;3.20;;
73023;SDS011;61199;47.526;8.538;2022-08-21T07:47:20;4.10;;;3.50;;
73023;SDS011;61199;47.526;8.538;2022-08-21T07:50:06;8.17;;;4.37;;
73023;SDS011;61199;47.526;8.538;2022-08-21T07:52:33;4.03;;;3.20;;
73023;SDS011;61199;47.526;8.538;2022-08-21T07:55:00;5.77;;;4.47;;
73023;SDS011;61199;47.526;8.538;2022-08-21T07:57:31;6.70;;;4.57;;
73023;SDS011;61199;47.526;8.538;2022-08-21T07:59:58;6.10;;;5.20;;
73023;SDS011;61199;47.526;8.538;2022-08-21T08:02:25;6.90;;;5.47;;
73023;SDS011;61199;47.526;8.538;2022-08-21T08:04:54;5.60;;;4.47;;
73023;SDS011;61199;47.526;8.538;2022-08-21T08:07:25;6.70;;;5.07;;
73023;SDS011;61199;47.526;8.538;2022-08-21T08:09:52;6.73;;;5.03;;
73023;SDS011;61199;47.526;8.538;2022-08-21T08:12:18;6.43;;;4.90;;
73023;SDS011;61199;47.526;8.538;2022-08-21T08:14:46;6.80;;;5.47;;
73023;SDS011;61199;47.526;8.538;2022-08-21T08:17:12;6.80;;;5.10;;
73023;SDS011;61199;47.526;8.538;2022-08-21T08:19:39;9.10;;;5.60;;
73023;SDS011;61199;47.526;8.538;2022-08-21T08:22:12;7.43;;;4.80;;
73023;SDS011;61199;47.526;8.538;2022-08-21T08:24:42;8.33;;;5.90;;
73023;SDS011;61199;47.526;8.538;2022-08-21T08:27:08;9.40;;;6.50;;
73023;SDS011;61199;47.526;8.538;2022-08-21T08:29:35;7.77;;;5.83;;
73023;SDS011;61199;47.526;8.538;2022-08-21T08:32:02;8.43;;;6.07;;
73023;SDS011;61199;47.526;8.538;2022-08-21T08:34:29;5.80;;;5.17;;
73023;SDS011;61199;47.526;8.538;2022-08-21T08:36:56;8.10;;;6.20;;
73023;SDS011;61199;47.526;8.538;2022-08-21T08:39:24;12.50;;;6.13;;
73023;SDS011;61199;47.526;8.538;2022-08-21T08:42:14;8.00;;;6.10;;
73023;SDS011;61199;47.526;8.538;2022-08-21T08:45:04;10.30;;;5.67;;
73023;SDS011;61199;47.526;8.538;2022-08-21T08:47:35;10.97;;;6.13;;
73023;SDS011;61199;47.526;8.538;2022-08-21T08:52:47;8.30;;;5.90;;
73023;SDS011;61199;47.526;8.538;2022-08-21T08:55:19;12.33;;;6.67;;
73023;SDS011;61199;47.526;8.538;2022-08-21T08:57:52;10.97;;;6.77;;
73023;SDS011;61199;47.526;8.538;2022-08-21T09:00:21;8.00;;;6.50;;
73023;SDS011;61199;47.526;8.538;2022-08-21T09:02:48;7.00;;;5.80;;
73023;SDS011;61199;47.526;8.538;2022-08-21T09:05:23;6.17;;;4.50;;
73023;SDS011;61199;47.526;8.538;2022-08-21T09:13:31;8.23;;;6.20;;
73023;SDS011;61199;47.526;8.538;2022-08-21T09:27:14;7.93;;;5.90;;
73023;SDS011;61199;47.526;8.538;2022-08-21T09:29:44;7.27;;;5.30;;
73023;SDS011;61199;47.526;8.538;2022-08-21T09:32:18;5.30;;;4.73;;
73023;SDS011;61199;47.526;8.538;2022-08-21T09:34:56;9.13;;;5.30;;
73023;SDS011;61199;47.526;8.538;2022-08-21T09:37:25;6.47;;;4.83;;
73023;SDS011;61199;47.526;8.538;2022-08-21T09:39:53;6.53;;;5.67;;
73023;SDS011;61199;47.526;8.538;2022-08-21T09:42:27;6.60;;;5.30;;
73023;SDS011;61199;47.526;8.538;2022-08-21T09:45:14;7.97;;;4.50;;
73023;SDS011;61199;47.526;8.538;2022-08-21T09:47:42;5.80;;;4.30;;
73023;SDS011;61199;47.526;8.538;2022-08-21T09:50:16;4.70;;;4.50;;
73023;SDS011;61199;47.526;8.538;2022-08-21T09:52:57;6.47;;;4.93;;
73023;SDS011;61199;47.526;8.538;2022-08-21T09:55:34;6.20;;;4.80;;
73023;SDS011;61199;47.526;8.538;2022-08-21T09:58:30;7.53;;;5.17;;
73023;SDS011;61199;47.526;8.538;2022-08-21T10:00:59;6.17;;;4.50;;
73023;SDS011;61199;47.526;8.538;2022-08-21T10:03:28;10.33;;;5.17;;
73023;SDS011;61199;47.526;8.538;2022-08-21T10:06:02;5.03;;;4.30;;
73023;SDS011;61199;47.526;8.538;2022-08-21T10:08:35;6.10;;;4.10;;
73023;SDS011;61199;47.526;8.538;2022-08-21T10:11:06;5.87;;;3.90;;
73023;SDS011;61199;47.526;8.538;2022-08-21T10:17:00;4.90;;;3.50;;
73023;SDS011;61199;47.526;8.538;2022-08-21T10:22:09;4.73;;;3.50;;
73023;SDS011;61199;47.526;8.538;2022-08-21T10:27:37;9.13;;;3.73;;
73023;SDS011;61199;47.526;8.538;2022-08-21T10:30:27;8.13;;;4.33;;
73023;SDS011;61199;47.526;8.538;2022-08-21T10:36:08;6.47;;;3.60;;
73023;SDS011;61199;47.526;8.538;2022-08-21T10:47:35;12.87;;;3.83;;
73023;SDS011;61199;47.526;8.538;2022-08-21T10:50:25;7.87;;;3.30;;
73023;SDS011;61199;47.526;8.538;2022-08-21T10:53:27;7.40;;;3.63;;
73023;SDS011;61199;47.526;8.538;2022-08-21T10:56:09;8.23;;;2.93;;
73023;SDS011;61199;47.526;8.538;2022-08-21T10:58:44;10.17;;;3.63;;
73023;SDS011;61199;47.526;8.538;2022-08-21T11:01:29;6.50;;;3.60;;
73023;SDS011;61199;47.526;8.538;2022-08-21T11:04:08;8.40;;;3.30;;
73023;SDS011;61199;47.526;8.538;2022-08-21T11:06:39;5.80;;;3.47;;
73023;SDS011;61199;47.526;8.538;2022-08-21T11:09:14;8.13;;;2.87;;
73023;SDS011;61199;47.526;8.538;2022-08-21T11:14:48;5.67;;;3.00;;
73023;SDS011;61199;47.526;8.538;2022-08-21T11:17:24;3.97;;;2.63;;
73023;SDS011;61199;47.526;8.538;2022-08-21T11:20:08;8.43;;;3.37;;
73023;SDS011;61199;47.526;8.538;2022-08-21T11:22:49;9.20;;;2.90;;
73023;SDS011;61199;47.526;8.538;2022-08-21T11:25:35;8.13;;;3.03;;
73023;SDS011;61199;47.526;8.538;2022-08-21T11:28:14;5.10;;;2.63;;
73023;SDS011;61199;47.526;8.538;2022-08-21T11:41:46;4.60;;;2.70;;
73023;SDS011;61199;47.526;8.538;2022-08-21T11:44:33;8.30;;;3.13;;
73023;SDS011;61199;47.526;8.538;2022-08-21T11:47:19;8.33;;;3.13;;
73023;SDS011;61199;47.526;8.538;2022-08-21T11:50:18;12.90;;;3.00;;
73023;SDS011;61199;47.526;8.538;2022-08-21T11:53:04;5.33;;;2.70;;
73023;SDS011;61199;47.526;8.538;2022-08-21T11:55:59;4.43;;;3.00;;
73023;SDS011;61199;47.526;8.538;2022-08-21T11:58:36;6.07;;;3.23;;
73023;SDS011;61199;47.526;8.538;2022-08-21T12:01:11;7.20;;;3.00;;
73023;SDS011;61199;47.526;8.538;2022-08-21T12:03:42;5.17;;;2.40;;
73023;SDS011;61199;47.526;8.538;2022-08-21T12:06:34;3.73;;;2.40;;
73023;SDS011;61199;47.526;8.538;2022-08-21T12:09:08;9.77;;;2.90;;
73023;SDS011;61199;47.526;8.538;2022-08-21T12:11:47;10.07;;;3.70;;
73023;SDS011;61199;47.526;8.538;2022-08-21T12:14:18;3.57;;;2.30;;
73023;SDS011;61199;47.526;8.538;2022-08-21T12:16:46;4.93;;;3.23;;
73023;SDS011;61199;47.526;8.538;2022-08-21T12:21:53;5.30;;;2.33;;
73023;SDS011;61199;47.526;8.538;2022-08-21T12:24:32;3.23;;;2.10;;
73023;SDS011;61199;47.526;8.538;2022-08-21T12:29:58;3.60;;;1.73;;
73023;SDS011;61199;47.526;8.538;2022-08-21T12:32:45;2.77;;;1.67;;
73023;SDS011;61199;47.526;8.538;2022-08-21T12:35:23;2.37;;;1.53;;
73023;SDS011;61199;47.526;8.538;2022-08-21T12:38:06;3.47;;;1.80;;
73023;SDS011;61199;47.526;8.538;2022-08-21T12:40:55;3.73;;;2.00;;
73023;SDS011;61199;47.526;8.538;2022-08-21T12:46:14;2.80;;;1.70;;
73023;SDS011;61199;47.526;8.538;2022-08-21T12:48:47;4.37;;;1.80;;
73023;SDS011;61199;47.526;8.538;2022-08-21T12:51:23;4.00;;;1.70;;
73023;SDS011;61199;47.526;8.538;2022-08-21T12:53:57;3.93;;;1.53;;
73023;SDS011;61199;47.526;8.538;2022-08-21T12:56:26;2.43;;;1.77;;
73023;SDS011;61199;47.526;8.538;2022-08-21T12:59:05;5.10;;;2.07;;
73023;SDS011;61199;47.526;8.538;2022-08-21T13:01:35;2.03;;;1.37;;
73023;SDS011;61199;47.526;8.538;2022-08-21T13:04:11;2.40;;;1.23;;
73023;SDS011;61199;47.526;8.538;2022-08-21T13:06:45;1.97;;;1.20;;
73023;SDS011;61199;47.526;8.538;2022-08-21T13:09:15;2.77;;;1.20;;
73023;SDS011;61199;47.526;8.538;2022-08-21T13:11:44;5.33;;;1.60;;
73023;SDS011;61199;47.526;8.538;2022-08-21T13:14:36;3.70;;;1.60;;
73023;SDS011;61199;47.526;8.538;2022-08-21T13:17:11;1.97;;;1.30;;
73023;SDS011;61199;47.526;8.538;2022-08-21T13:20:02;2.90;;;1.60;;
73023;SDS011;61199;47.526;8.538;2022-08-21T13:22:31;4.80;;;1.50;;
73023;SDS011;61199;47.526;8.538;2022-08-21T13:25:00;3.27;;;1.40;;
73023;SDS011;61199;47.526;8.538;2022-08-21T13:27:32;3.40;;;1.30;;
73023;SDS011;61199;47.526;8.538;2022-08-21T13:32:42;3.67;;;1.87;;
73023;SDS011;61199;47.526;8.538;2022-08-21T13:35:12;1.73;;;1.43;;
73023;SDS011;61199;47.526;8.538;2022-08-21T13:37:44;5.60;;;1.70;;
73023;SDS011;61199;47.526;8.538;2022-08-21T13:40:14;4.70;;;1.47;;
73023;SDS011;61199;47.526;8.538;2022-08-21T13:42:45;3.03;;;1.30;;
73023;SDS011;61199;47.526;8.538;2022-08-21T13:45:21;5.00;;;1.40;;
73023;SDS011;61199;47.526;8.538;2022-08-21T13:47:50;3.77;;;1.47;;
73023;SDS011;61199;47.526;8.538;2022-08-21T13:50:19;2.47;;;1.53;;
73023;SDS011;61199;47.526;8.538;2022-08-21T13:52:59;2.47;;;1.50;;
73023;SDS011;61199;47.526;8.538;2022-08-21T13:55:39;2.80;;;1.30;;
73023;SDS011;61199;47.526;8.538;2022-08-21T13:58:08;2.10;;;1.10;;
73023;SDS011;61199;47.526;8.538;2022-08-21T14:00:44;2.90;;;1.30;;
73023;SDS011;61199;47.526;8.538;2022-08-21T14:03:15;2.40;;;1.33;;
73023;SDS011;61199;47.526;8.538;2022-08-21T14:05:53;3.30;;;1.50;;
73023;SDS011;61199;47.526;8.538;2022-08-21T14:08:31;8.83;;;5.07;;
73023;SDS011;61199;47.526;8.538;2022-08-21T14:11:00;9.17;;;2.80;;
73023;SDS011;61199;47.526;8.538;2022-08-21T14:13:35;5.93;;;4.23;;
73023;SDS011;61199;47.526;8.538;2022-08-21T14:16:14;3.77;;;2.20;;
73023;SDS011;61199;47.526;8.538;2022-08-21T14:18:47;3.73;;;2.10;;
73023;SDS011;61199;47.526;8.538;2022-08-21T14:21:39;2.43;;;1.53;;
73023;SDS011;61199;47.526;8.538;2022-08-21T14:24:11;2.03;;;1.20;;
73023;SDS011;61199;47.526;8.538;2022-08-21T14:26:56;2.63;;;1.37;;
73023;SDS011;61199;47.526;8.538;2022-08-21T14:29:32;1.90;;;1.30;;
73023;SDS011;61199;47.526;8.538;2022-08-21T14:32:08;8.93;;;1.10;;
73023;SDS011;61199;47.526;8.538;2022-08-21T14:34:47;4.63;;;1.70;;
73023;SDS011;61199;47.526;8.538;2022-08-21T14:37:13;1.90;;;1.40;;
73023;SDS011;61199;47.526;8.538;2022-08-21T14:39:40;2.47;;;1.47;;
73023;SDS011;61199;47.526;8.538;2022-08-21T14:42:10;2.13;;;1.10;;
73023;SDS011;61199;47.526;8.538;2022-08-21T14:44:36;3.13;;;1.17;;
73023;SDS011;61199;47.526;8.538;2022-08-21T14:47:03;3.07;;;1.37;;
73023;SDS011;61199;47.526;8.538;2022-08-21T14:49:30;3.03;;;1.37;;
73023;SDS011;61199;47.526;8.538;2022-08-21T14:51:56;4.20;;;2.17;;
73023;SDS011;61199;47.526;8.538;2022-08-21T14:54:25;7.93;;;2.10;;
73023;SDS011;61199;47.526;8.538;2022-08-21T14:56:58;2.47;;;1.40;;
73023;SDS011;61199;47.526;8.538;2022-08-21T14:59:28;2.00;;;1.30;;
73023;SDS011;61199;47.526;8.538;2022-08-21T15:01:55;2.13;;;1.40;;
73023;SDS011;61199;47.526;8.538;2022-08-21T15:04:22;5.70;;;1.70;;
73023;SDS011;61199;47.526;8.538;2022-08-21T15:06:48;1.33;;;1.13;;
73023;SDS011;61199;47.526;8.538;2022-08-21T15:09:15;4.73;;;1.20;;
73023;SDS011;61199;47.526;8.538;2022-08-21T15:11:41;2.30;;;1.30;;
73023;SDS011;61199;47.526;8.538;2022-08-21T15:14:09;1.93;;;1.20;;
73023;SDS011;61199;47.526;8.538;2022-08-21T15:16:42;2.20;;;1.40;;
73023;SDS011;61199;47.526;8.538;2022-08-21T15:19:09;1.67;;;1.17;;
73023;SDS011;61199;47.526;8.538;2022-08-21T15:21:35;2.10;;;1.47;;
73023;SDS011;61199;47.526;8.538;2022-08-21T15:24:02;2.97;;;1.53;;
73023;SDS011;61199;47.526;8.538;2022-08-21T15:26:28;1.83;;;1.00;;
73023;SDS011;61199;47.526;8.538;2022-08-21T15:28:55;2.60;;;1.50;;
73023;SDS011;61199;47.526;8.538;2022-08-21T15:31:21;4.30;;;1.47;;
73023;SDS011;61199;47.526;8.538;2022-08-21T15:33:47;2.47;;;1.37;;
73023;SDS011;61199;47.526;8.538;2022-08-21T15:36:14;7.93;;;1.20;;
73023;SDS011;61199;47.526;8.538;2022-08-21T15:38:40;3.77;;;1.20;;
73023;SDS011;61199;47.526;8.538;2022-08-21T15:41:07;1.70;;;1.10;;
73023;SDS011;61199;47.526;8.538;2022-08-21T15:43:41;2.30;;;1.23;;
73023;SDS011;61199;47.526;8.538;2022-08-21T15:46:11;2.30;;;1.47;;
73023;SDS011;61199;47.526;8.538;2022-08-21T15:48:39;2.70;;;1.37;;
73023;SDS011;61199;47.526;8.538;2022-08-21T15:51:06;2.80;;;1.30;;
73023;SDS011;61199;47.526;8.538;2022-08-21T15:53:33;1.60;;;1.40;;
73023;SDS011;61199;47.526;8.538;2022-08-21T15:56:05;2.50;;;1.60;;
73023;SDS011;61199;47.526;8.538;2022-08-21T15:58:47;2.00;;;1.40;;
73023;SDS011;61199;47.526;8.538;2022-08-21T16:01:15;3.23;;;1.00;;
73023;SDS011;61199;47.526;8.538;2022-08-21T16:03:42;2.00;;;1.10;;
73023;SDS011;61199;47.526;8.538;2022-08-21T16:06:11;8.23;;;2.30;;
73023;SDS011;61199;47.526;8.538;2022-08-21T16:08:37;4.83;;;2.47;;
73023;SDS011;61199;47.526;8.538;2022-08-21T16:11:04;3.40;;;2.10;;
73023;SDS011;61199;47.526;8.538;2022-08-21T16:13:35;3.30;;;1.70;;